Time;durP1;ratioP1;P1;durP2;ratioP2;P2;SDS_P1;SDS_P2;PMS_P1;PMS_P2;Temp;Humidity;BMP_temperature;BMP_pressure;BME280_temperature;BME280_humidity;BME280_pressure;Samples;Min_cycle;Max_cycle;Signal;HPM_P1;HPM_P2
2024/03/02 00:31:25;;;;;;;71.45;36.25;;;;;;;;;;4962914;23;20063;-94
2024/03/02 00:34:02;;;;;;;84.53;37.22;;;;;;;;;;4933547;29;20099;-92
2024/03/02 00:36:50;;;;;;;78.80;36.63;;;;;;;;;;4925260;29;20032;-94
2024/03/02 00:39:54;;;;;;;86.45;36.88;;;;;;;;;;4922551;29;20039;-95
2024/03/02 00:42:20;;;;;;;71.93;34.65;;;;;;;;;;4926183;29;20505;-94
2024/03/02 00:45:02;;;;;;;82.57;35.72;;;;;;;;;;4927868;29;20031;-95
2024/03/02 00:47:32;;;;;;;67.10;33.45;;;;;;;;;;4947227;29;20046;-95
2024/03/02 00:50:01;;;;;;;74.95;34.05;;;;;;;;;;4945679;29;20401;-93
2024/03/02 00:53:17;;;;;;;;;;;;;;;;;;;;;
2024/03/02 00:56:15;;;;;;;78.00;34.45;;;;;;;;;;4820616;29;20074;-95
2024/03/02 05:14:24;;;;;;;51.90;26.48;;;;;;;;;;4950280;29;20043;-96
2024/03/02 05:17:15;;;;;;;53.72;28.52;;;;;;;;;;4889536;29;20036;-96
2024/03/02 05:19:56;;;;;;;89.35;46.78;;;;;;;;;;4947286;29;20040;-95
2024/03/02 05:22:55;;;;;;;;;;;;;;;;;;;;;
2024/03/02 06:18:07;;;;;;;139.90;51.65;;;;;;;;;;5675316;23;20048;-93
2024/03/02 06:45:41;;;;;;;97.43;43.50;;;;;;;;;;4817644;29;20039;-96
2024/03/02 06:48:11;;;;;;;97.13;45.13;;;;;;;;;;4921112;29;20047;-95
2024/03/02 06:50:40;;;;;;;117.43;49.53;;;;;;;;;;4906265;29;20393;-95
2024/03/02 06:53:06;;;;;;;107.68;49.25;;;;;;;;;;4905462;29;20470;-95
2024/03/02 06:55:38;;;;;;;102.22;47.65;;;;;;;;;;4920125;29;20556;-96
2024/03/02 06:58:04;;;;;;;97.18;46.25;;;;;;;;;;4905402;29;20040;-95
2024/03/02 07:00:33;;;;;;;96.28;44.67;;;;;;;;;;4905687;29;20024;-95
2024/03/02 07:03:03;;;;;;;101.72;46.83;;;;;;;;;;4923187;29;20032;-96
2024/03/02 07:05:29;;;;;;;111.55;50.78;;;;;;;;;;4913977;29;20028;-96
2024/03/02 07:07:55;;;;;;;91.25;45.75;;;;;;;;;;4918008;28;20039;-93
2024/03/02 07:19:41;;;;;;;;;;;;;;;;;;;;;
2024/03/02 07:22:00;;;;;;;78.07;41.90;;;;;;;;;;4880909;29;20041;-96
2024/03/02 07:37:24;;;;;;;76.60;44.65;;;;;;;;;;4936028;29;20052;-92
2024/03/02 07:39:54;;;;;;;75.47;45.15;;;;;;;;;;4920969;29;20040;-94
2024/03/02 07:42:23;;;;;;;73.57;43.05;;;;;;;;;;4922524;29;20036;-93
2024/03/02 07:44:52;;;;;;;61.88;37.13;;;;;;;;;;4921477;29;20091;-94
2024/03/02 07:47:18;;;;;;;43.20;29.70;;;;;;;;;;4920668;29;20055;-94
2024/03/02 07:49:46;;;;;;;46.30;29.10;;;;;;;;;;4920379;29;20035;-92
2024/03/02 07:52:19;;;;;;;42.58;27.80;;;;;;;;;;4907589;29;20123;-96
2024/03/02 07:54:46;;;;;;;44.10;29.00;;;;;;;;;;4920689;29;20430;-96
2024/03/02 07:57:15;;;;;;;40.53;27.75;;;;;;;;;;4921378;29;20020;-96
2024/03/02 07:59:41;;;;;;;40.13;28.42;;;;;;;;;;4921087;29;20056;-94
2024/03/02 08:02:10;;;;;;;43.00;30.00;;;;;;;;;;4920563;29;20027;-96
2024/03/02 08:04:37;;;;;;;47.40;29.88;;;;;;;;;;4919985;29;20027;-93
2024/03/02 08:07:03;;;;;;;40.58;27.65;;;;;;;;;;4920982;29;20039;-90
2024/03/02 08:09:29;;;;;;;42.63;30.00;;;;;;;;;;4920833;29;20035;-93
2024/03/02 08:12:01;;;;;;;38.47;26.92;;;;;;;;;;4920439;29;20044;-93
2024/03/02 08:14:36;;;;;;;39.58;28.60;;;;;;;;;;4923433;29;20027;-94
2024/03/02 08:17:03;;;;;;;46.83;29.55;;;;;;;;;;4922044;29;20166;-95
2024/03/02 08:19:32;;;;;;;50.10;33.63;;;;;;;;;;4923544;29;20357;-93
2024/03/02 08:21:59;;;;;;;45.42;30.85;;;;;;;;;;4931775;29;20095;-95
2024/03/02 08:24:25;;;;;;;55.80;35.03;;;;;;;;;;4924960;29;20035;-94
2024/03/02 08:35:52;;;;;;;46.78;32.97;;;;;;;;;;4935780;23;20090;-96
2024/03/02 08:38:21;;;;;;;39.50;26.85;;;;;;;;;;4920350;29;20161;-94
2024/03/02 08:40:51;;;;;;;46.60;32.85;;;;;;;;;;4921150;29;20389;-93
2024/03/02 08:43:20;;;;;;;41.47;32.80;;;;;;;;;;4904996;29;20047;-94
2024/03/02 08:45:50;;;;;;;52.22;37.67;;;;;;;;;;4905099;29;20133;-94
2024/03/02 08:48:24;;;;;;;42.30;35.05;;;;;;;;;;4905611;29;20044;-94
2024/03/02 08:50:53;;;;;;;42.70;31.60;;;;;;;;;;4904227;29;20024;-91
2024/03/02 08:53:43;;;;;;;44.10;29.80;;;;;;;;;;5069954;23;20056;-92
2024/03/02 08:56:42;;;;;;;45.05;34.13;;;;;;;;;;4874458;29;20093;-95
2024/03/02 08:59:34;;;;;;;41.92;30.17;;;;;;;;;;4949476;23;20049;-96
2024/03/02 09:05:19;;;;;;;46.30;29.85;;;;;;;;;;4856637;29;20126;-95
2024/03/02 09:07:50;;;;;;;43.97;30.40;;;;;;;;;;4957307;23;20044;-93
2024/03/02 09:10:16;;;;;;;45.42;33.13;;;;;;;;;;4936287;29;20036;-96
2024/03/02 09:12:45;;;;;;;40.97;29.02;;;;;;;;;;4921122;29;20036;-94
2024/03/02 09:15:14;;;;;;;41.22;29.50;;;;;;;;;;4919995;29;20039;-94
2024/03/02 09:18:08;;;;;;;42.47;31.50;;;;;;;;;;4926901;29;20024;-94
2024/03/02 09:20:34;;;;;;;41.70;30.85;;;;;;;;;;4918279;29;20137;-91
2024/03/02 09:31:12;;;;;;;45.72;30.10;;;;;;;;;;5136327;23;20098;-95
2024/03/02 09:33:44;;;;;;;44.70;31.73;;;;;;;;;;4965628;29;20050;-95
2024/03/02 09:36:20;;;;;;;42.95;29.15;;;;;;;;;;4945812;29;20130;-92
2024/03/02 09:38:46;;;;;;;51.60;32.22;;;;;;;;;;4919632;29;20126;-95
2024/03/02 09:41:16;;;;;;;45.22;32.65;;;;;;;;;;4933657;29;20389;-94
2024/03/02 09:44:10;;;;;;;42.25;28.30;;;;;;;;;;4932037;29;20030;-94
2024/03/02 09:46:36;;;;;;;41.55;27.98;;;;;;;;;;4939956;29;20079;-94
2024/03/02 09:49:26;;;;;;;41.00;28.85;;;;;;;;;;4944803;29;20059;-95
2024/03/02 09:51:56;;;;;;;46.67;30.20;;;;;;;;;;5095484;23;20026;-95
2024/03/02 09:54:25;;;;;;;42.92;29.25;;;;;;;;;;5015696;23;20060;-93
2024/03/02 09:56:51;;;;;;;41.63;28.65;;;;;;;;;;4930399;29;20032;-95
2024/03/02 09:59:21;;;;;;;39.47;27.73;;;;;;;;;;4932526;29;20028;-95
2024/03/02 10:02:00;;;;;;;44.25;28.20;;;;;;;;;;4927727;29;20040;-94
2024/03/02 10:04:35;;;;;;;41.28;28.23;;;;;;;;;;4923759;29;20031;-94
2024/03/02 10:07:14;;;;;;;43.47;29.40;;;;;;;;;;4940146;29;20043;-94
2024/03/02 10:09:41;;;;;;;54.58;31.10;;;;;;;;;;4923886;29;20036;-92
2024/03/02 10:12:29;;;;;;;;;;;;;;;;;;;;;
2024/03/02 10:15:09;;;;;;;49.08;30.33;;;;;;;;;;4937513;29;20106;-94
2024/03/02 10:17:35;;;;;;;49.28;30.83;;;;;;;;;;4925960;29;20469;-93
2024/03/02 10:20:20;;;;;;;42.67;27.50;;;;;;;;;;4923404;29;20028;-93
2024/03/02 10:22:47;;;;;;;48.60;30.65;;;;;;;;;;4922435;29;20024;-94
2024/03/02 10:25:32;;;;;;;49.80;30.60;;;;;;;;;;4922462;29;20034;-95
2024/03/02 10:28:08;;;;;;;52.15;29.98;;;;;;;;;;4922805;29;20099;-94
2024/03/02 10:30:43;;;;;;;47.80;30.25;;;;;;;;;;4922676;29;20031;-94
2024/03/02 10:33:12;;;;;;;45.58;29.77;;;;;;;;;;4927998;28;20028;-94
2024/03/02 10:35:39;;;;;;;46.58;28.35;;;;;;;;;;4971427;23;20071;-93
2024/03/02 10:38:08;;;;;;;48.55;30.35;;;;;;;;;;4896063;29;20028;-94
2024/03/02 10:40:40;;;;;;;46.17;28.50;;;;;;;;;;4895458;29;20031;-91
2024/03/02 10:43:10;;;;;;;46.33;29.70;;;;;;;;;;4902162;29;20389;-93
2024/03/02 10:45:36;;;;;;;48.80;30.13;;;;;;;;;;4891098;29;20493;-92
2024/03/02 10:48:05;;;;;;;49.85;28.92;;;;;;;;;;4902208;29;20044;-93
2024/03/02 10:50:37;;;;;;;42.83;27.88;;;;;;;;;;4917805;29;20016;-92
2024/03/02 10:53:07;;;;;;;46.97;29.67;;;;;;;;;;4921864;29;20032;-93
2024/03/02 10:55:39;;;;;;;48.22;28.98;;;;;;;;;;4914004;29;20028;-93
2024/03/02 11:01:02;;;;;;;55.95;32.40;;;;;;;;;;4919386;29;20080;-94
2024/03/02 11:03:47;;;;;;;53.15;32.05;;;;;;;;;;4902627;29;20114;-93
2024/03/02 11:06:17;;;;;;;48.10;30.17;;;;;;;;;;4901845;29;20080;-94
2024/03/02 11:11:50;;;;;;;49.15;27.45;;;;;;;;;;4920687;29;20172;-94
2024/03/02 11:14:25;;;;;;;52.90;30.20;;;;;;;;;;4905722;29;20028;-95
2024/03/02 11:16:58;;;;;;;50.85;30.13;;;;;;;;;;4911046;29;20036;-94
2024/03/02 11:19:44;;;;;;;51.20;29.58;;;;;;;;;;4915509;29;20024;-95
2024/03/02 11:22:34;;;;;;;50.47;30.42;;;;;;;;;;4906783;29;20096;-96
2024/03/02 11:25:10;;;;;;;50.15;31.50;;;;;;;;;;4888013;29;20410;-93
2024/03/02 11:27:58;;;;;;;47.20;30.17;;;;;;;;;;4899612;29;20040;-95
2024/03/02 11:30:34;;;;;;;49.70;30.42;;;;;;;;;;4912232;29;20052;-93
2024/03/02 11:33:16;;;;;;;54.45;33.17;;;;;;;;;;4890001;29;20044;-93
2024/03/02 11:35:43;;;;;;;52.67;32.35;;;;;;;;;;4906740;29;20047;-95
2024/03/02 11:51:13;;;;;;;;;;;;;;;;;;;;;
2024/03/02 11:56:27;;;;;;;41.15;26.35;;;;;;;;;;5032334;23;20536;-95
2024/03/02 11:59:00;;;;;;;37.03;25.55;;;;;;;;;;4904043;29;20040;-95
2024/03/02 12:01:46;;;;;;;42.35;25.67;;;;;;;;;;4903506;29;20031;-94
2024/03/02 12:04:12;;;;;;;41.35;25.95;;;;;;;;;;4905328;29;20040;-95
2024/03/02 12:07:00;;;;;;;39.85;26.35;;;;;;;;;;4908672;29;20029;-94
2024/03/02 12:09:30;;;;;;;41.08;26.23;;;;;;;;;;4888556;29;20108;-95
2024/03/02 12:12:09;;;;;;;43.80;27.60;;;;;;;;;;4888096;29;20033;-95
2024/03/02 12:14:39;;;;;;;42.75;27.63;;;;;;;;;;4900902;29;20035;-94
2024/03/02 12:17:09;;;;;;;41.50;27.55;;;;;;;;;;4984900;23;20023;-94
2024/03/02 12:19:35;;;;;;;46.88;28.80;;;;;;;;;;4939008;28;20028;-94
2024/03/02 12:22:06;;;;;;;45.42;29.38;;;;;;;;;;4955186;23;20056;-95
2024/03/02 12:24:32;;;;;;;45.20;28.30;;;;;;;;;;4921712;29;20032;-94
2024/03/02 12:26:58;;;;;;;45.42;29.13;;;;;;;;;;4922690;29;20030;-92
2024/03/02 12:29:28;;;;;;;42.15;26.13;;;;;;;;;;4941083;29;20027;-95
2024/03/02 12:31:59;;;;;;;40.40;25.88;;;;;;;;;;4929156;29;20032;-94
2024/03/02 12:37:20;;;;;;;34.28;24.15;;;;;;;;;;5848868;23;20086;-95
2024/03/02 12:39:50;;;;;;;35.83;25.13;;;;;;;;;;4929863;29;20067;-95
2024/03/02 12:48:36;;;;;;;35.33;23.95;;;;;;;;;;4914449;29;20073;-96
2024/03/02 12:51:11;;;;;;;36.50;24.48;;;;;;;;;;4898571;29;20013;-92
2024/03/02 12:53:58;;;;;;;37.75;24.30;;;;;;;;;;4912358;29;20092;-94
2024/03/02 12:56:25;;;;;;;39.78;28.70;;;;;;;;;;4923741;29;20024;-95
2024/03/02 12:59:04;;;;;;;40.10;26.38;;;;;;;;;;4918624;29;20016;-96
2024/03/02 13:01:37;;;;;;;40.67;26.83;;;;;;;;;;4909725;29;20044;-95
2024/03/02 13:13:30;;;;;;;32.38;21.92;;;;;;;;;;4937623;29;20043;-96
2024/03/02 13:16:30;;;;;;;34.67;23.75;;;;;;;;;;4939205;29;20036;-95
2024/03/02 14:07:44;;;;;;;35.03;22.65;;;;;;;;;;5590028;23;20060;-94
2024/03/02 14:12:55;;;;;;;39.08;26.25;;;;;;;;;;4970037;23;20257;-94
2024/03/02 14:15:38;;;;;;;;;;;;;;;;;;;;;
2024/03/02 14:21:13;;;;;;;;;;;;;;;;;;;;;
2024/03/02 14:23:50;;;;;;;39.00;22.23;;;;;;;;;;4920046;29;20060;-94
2024/03/02 14:34:38;;;;;;;34.30;22.92;;;;;;;;;;5276872;23;20070;-95
2024/03/02 14:48:28;;;;;;;31.85;21.73;;;;;;;;;;5512932;23;20045;-95
2024/03/02 15:19:24;;;;;;;33.80;23.63;;;;;;;;;;4946627;29;20031;-96
2024/03/02 15:31:59;;;;;;;34.65;22.33;;;;;;;;;;4957059;28;20195;-94
2024/03/02 15:35:10;;;;;;;;;;;;;;;;;;;;;
2024/03/02 15:37:46;;;;;;;34.15;22.50;;;;;;;;;;5049925;23;20039;31
2024/03/02 15:48:50;;;;;;;;;;;;;;;;;;;;;
2024/03/02 15:58:23;;;;;;;31.30;21.42;;;;;;;;;;4890414;23;20040;-94
2024/03/02 16:03:29;;;;;;;34.58;22.92;;;;;;;;;;5522981;23;20037;31
2024/03/02 16:42:33;;;;;;;31.95;21.98;;;;;;;;;;4938578;29;20056;-94
2024/03/02 16:50:55;;;;;;;31.15;21.40;;;;;;;;;;5615125;23;20066;-95
2024/03/02 16:53:50;;;;;;;32.30;21.88;;;;;;;;;;4942077;29;20123;-93
2024/03/02 16:56:34;;;;;;;32.58;21.77;;;;;;;;;;4948572;29;20127;-94
2024/03/02 17:02:10;;;;;;;35.03;23.05;;;;;;;;;;5068462;23;20047;-95
2024/03/02 17:05:24;;;;;;;;;;;;;;;;;;;;;
2024/03/02 17:15:45;;;;;;;28.98;20.52;;;;;;;;;;5129210;23;20051;-94
2024/03/02 17:18:29;;;;;;;;;;;;;;;;;;;;;
2024/03/02 17:39:39;;;;;;;60.85;38.10;;;;;;;;;;5141035;23;20128;-95
2024/03/02 17:44:44;;;;;;;52.17;33.03;;;;;;;;;;5253085;23;20103;-95
2024/03/02 17:57:42;;;;;;;73.72;40.10;;;;;;;;;;4937972;29;20047;-95
2024/03/02 18:29:45;;;;;;;34.35;24.33;;;;;;;;;;4941179;29;20055;-94
2024/03/02 18:32:21;;;;;;;38.28;26.27;;;;;;;;;;4915742;29;20036;-94
2024/03/02 18:34:57;;;;;;;40.10;25.45;;;;;;;;;;4929334;29;20457;-94
2024/03/02 18:37:26;;;;;;;32.45;22.48;;;;;;;;;;4926206;29;20028;-92
2024/03/02 18:40:14;;;;;;;42.85;29.90;;;;;;;;;;4937567;29;20032;-94
2024/03/02 18:42:41;;;;;;;34.53;26.30;;;;;;;;;;4941531;29;20023;-93
2024/03/02 18:45:35;;;;;;;41.58;28.05;;;;;;;;;;4942432;29;20052;-93
2024/03/02 18:56:30;;;;;;;;;;;;;;;;;;;;;
2024/03/02 18:58:46;;;;;;;34.85;24.08;;;;;;;;;;4953791;28;20034;-94
2024/03/02 19:01:43;;;;;;;38.63;25.63;;;;;;;;;;4923611;29;20016;-96
2024/03/02 19:12:24;;;;;;;41.78;26.85;;;;;;;;;;4952763;28;20047;-95
2024/03/02 19:14:52;;;;;;;40.42;25.45;;;;;;;;;;4936242;29;20082;-95
2024/03/02 19:17:19;;;;;;;42.22;29.10;;;;;;;;;;4934957;29;20042;-96
2024/03/02 19:19:50;;;;;;;39.50;28.45;;;;;;;;;;4920172;29;20040;-95
2024/03/02 19:22:18;;;;;;;37.05;25.05;;;;;;;;;;4938018;29;20032;-95
2024/03/02 19:40:41;;;;;;;36.85;27.05;;;;;;;;;;4936123;29;20040;-94
2024/03/02 19:43:11;;;;;;;35.28;27.52;;;;;;;;;;4919913;29;20044;-94
2024/03/02 19:51:20;;;;;;;33.35;25.35;;;;;;;;;;5309356;23;20066;-95
2024/03/02 19:56:55;;;;;;;35.90;30.88;;;;;;;;;;4955865;28;20042;-96
2024/03/02 19:59:28;;;;;;;37.75;33.25;;;;;;;;;;4940331;29;20173;-95
2024/03/02 20:02:00;;;;;;;37.70;30.77;;;;;;;;;;4937860;29;20031;-96
2024/03/02 20:10:20;;;;;;;33.50;24.52;;;;;;;;;;5012055;23;20036;-94
2024/03/02 20:15:44;;;;;;;34.70;29.65;;;;;;;;;;5055048;23;20067;-96
2024/03/02 20:20:46;;;;;;;38.20;32.83;;;;;;;;;;5102543;23;20043;-95
2024/03/02 20:28:55;;;;;;;31.52;26.25;;;;;;;;;;4955054;28;20047;-95
2024/03/02 20:34:01;;;;;;;31.65;24.00;;;;;;;;;;5706789;23;20064;-93
2024/03/02 20:37:09;;;;;;;39.90;31.55;;;;;;;;;;4944035;29;20023;-95
2024/03/02 20:40:02;;;;;;;;;;;;;;;;;;;;;
2024/03/02 20:45:38;;;;;;;37.47;24.47;;;;;;;;;;4941095;29;20116;-93
2024/03/02 20:48:18;;;;;;;43.17;26.33;;;;;;;;;;5452889;23;20068;-93
2024/03/02 20:55:55;;;;;;;46.70;27.60;;;;;;;;;;4952859;28;20110;-94
2024/03/02 21:01:24;;;;;;;47.35;29.08;;;;;;;;;;4953354;29;20038;-95
2024/03/02 21:03:50;;;;;;;51.22;24.38;;;;;;;;;;4936807;29;20040;-93
2024/03/02 21:06:22;;;;;;;47.35;24.90;;;;;;;;;;4938731;29;20091;-94
2024/03/02 21:08:52;;;;;;;42.67;23.67;;;;;;;;;;4936541;29;20023;-95
2024/03/02 21:11:19;;;;;;;47.88;26.25;;;;;;;;;;5163130;23;20059;-94
2024/03/02 21:13:55;;;;;;;42.20;24.38;;;;;;;;;;4982623;23;20052;-96
2024/03/02 21:38:50;;;;;;;54.15;27.38;;;;;;;;;;4953027;28;20026;-95
2024/03/02 21:41:24;;;;;;;62.78;29.98;;;;;;;;;;4954926;28;20096;-95
2024/03/02 21:43:56;;;;;;;60.47;32.25;;;;;;;;;;4936529;29;20039;-95
2024/03/02 21:52:41;;;;;;;59.40;28.42;;;;;;;;;;4896121;29;20076;-95
2024/03/02 21:58:26;;;;;;;62.58;28.73;;;;;;;;;;4938600;23;20078;-94
2024/03/02 22:07:21;;;;;;;55.58;29.33;;;;;;;;;;4952977;29;20091;-94
2024/03/02 22:09:51;;;;;;;54.33;28.92;;;;;;;;;;4947702;29;20032;-93
2024/03/02 22:15:49;;;;;;;60.45;27.95;;;;;;;;;;4836792;29;20268;-93
2024/03/02 22:21:02;;;;;;;61.25;31.55;;;;;;;;;;4855318;29;20044;-96
2024/03/02 22:23:47;;;;;;;58.72;29.85;;;;;;;;;;4837842;29;20038;-96
2024/03/02 22:31:54;;;;;;;59.03;30.33;;;;;;;;;;5430137;23;20047;-94
2024/03/02 22:35:07;;;;;;;63.63;30.83;;;;;;;;;;4940050;29;20099;-94
2024/03/02 22:40:13;;;;;;;63.95;32.55;;;;;;;;;;5255507;23;20051;-96
2024/03/02 22:42:51;;;;;;;66.88;31.00;;;;;;;;;;4932362;29;20036;-93
2024/03/02 22:45:50;;;;;;;;;;;;;;;;;;;;;
2024/03/02 22:48:16;;;;;;;69.03;31.95;;;;;;;;;;5227180;23;20087;-95
2024/03/02 22:50:43;;;;;;;75.97;37.88;;;;;;;;;;4932901;29;20023;-96
2024/03/02 22:53:12;;;;;;;73.80;33.13;;;;;;;;;;5211567;23;20039;-95
2024/03/02 22:58:42;;;;;;;71.63;31.98;;;;;;;;;;4951348;28;20084;-96
2024/03/02 23:01:26;;;;;;;79.07;34.83;;;;;;;;;;4933177;29;20028;-95
2024/03/02 23:26:39;;;;;;;83.05;35.38;;;;;;;;;;4946910;29;20044;-93
2024/03/02 23:29:13;;;;;;;86.07;34.95;;;;;;;;;;4933832;29;20063;-93
2024/03/02 23:31:40;;;;;;;78.25;36.83;;;;;;;;;;4948056;29;20028;-95
2024/03/02 23:34:38;;;;;;;82.68;36.30;;;;;;;;;;4932242;29;20099;-94
2024/03/02 23:42:35;;;;;;;77.13;34.97;;;;;;;;;;4952033;29;20074;-95
2024/03/02 23:50:22;;;;;;;;;;;;;;;;;;;;;
2024/03/02 23:52:49;;;;;;;73.53;33.58;;;;;;;;;;4914992;29;20064;-94
2024/03/02 23:55:15;;;;;;;82.88;35.45;;;;;;;;;;4894422;29;20056;-94
2024/03/02 23:57:41;;;;;;;86.15;36.15;;;;;;;;;;4894973;29;20036;-94
